sensor_id;sensor_type;location;lat;lon;timestamp;P1;durP1;ratioP1;P2;durP2;ratioP2
9783;SDS011;4931;44.874;-1.092;2023-12-22T00:00:36;22.85;;;2.70;;
9783;SDS011;4931;44.874;-1.092;2023-12-22T00:03:01;17.08;;;2.22;;
9783;SDS011;4931;44.874;-1.092;2023-12-22T00:05:27;20.83;;;2.33;;
9783;SDS011;4931;44.874;-1.092;2023-12-22T00:07:52;18.33;;;2.67;;
9783;SDS011;4931;44.874;-1.092;2023-12-22T00:10:18;19.33;;;2.47;;
9783;SDS011;4931;44.874;-1.092;2023-12-22T00:12:43;21.60;;;2.10;;
9783;SDS011;4931;44.874;-1.092;2023-12-22T00:15:09;19.42;;;2.60;;
9783;SDS011;4931;44.874;-1.092;2023-12-22T00:17:34;24.83;;;2.78;;
9783;SDS011;4931;44.874;-1.092;2023-12-22T00:20:00;17.50;;;2.38;;
9783;SDS011;4931;44.874;-1.092;2023-12-22T00:22:28;22.85;;;2.75;;
9783;SDS011;4931;44.874;-1.092;2023-12-22T00:24:54;17.08;;;2.40;;
9783;SDS011;4931;44.874;-1.092;2023-12-22T00:27:20;29.50;;;2.53;;
9783;SDS011;4931;44.874;-1.092;2023-12-22T00:29:45;26.38;;;2.50;;
9783;SDS011;4931;44.874;-1.092;2023-12-22T00:32:10;16.10;;;2.38;;
9783;SDS011;4931;44.874;-1.092;2023-12-22T00:34:36;24.15;;;2.65;;
9783;SDS011;4931;44.874;-1.092;2023-12-22T00:37:01;18.85;;;2.40;;
9783;SDS011;4931;44.874;-1.092;2023-12-22T00:39:29;23.23;;;2.63;;
9783;SDS011;4931;44.874;-1.092;2023-12-22T00:41:55;20.70;;;2.85;;
9783;SDS011;4931;44.874;-1.092;2023-12-22T00:44:21;27.67;;;3.10;;
9783;SDS011;4931;44.874;-1.092;2023-12-22T00:46:46;21.45;;;2.85;;
9783;SDS011;4931;44.874;-1.092;2023-12-22T00:49:12;26.95;;;3.13;;
9783;SDS011;4931;44.874;-1.092;2023-12-22T00:51:37;25.38;;;3.22;;
9783;SDS011;4931;44.874;-1.092;2023-12-22T00:54:03;28.67;;;2.97;;
9783;SDS011;4931;44.874;-1.092;2023-12-22T00:56:28;19.85;;;2.65;;
9783;SDS011;4931;44.874;-1.092;2023-12-22T00:58:53;19.88;;;2.97;;
9783;SDS011;4931;44.874;-1.092;2023-12-22T01:01:19;17.70;;;2.25;;
9783;SDS011;4931;44.874;-1.092;2023-12-22T01:03:44;21.90;;;2.30;;
9783;SDS011;4931;44.874;-1.092;2023-12-22T01:06:10;19.10;;;2.50;;
9783;SDS011;4931;44.874;-1.092;2023-12-22T01:08:36;16.70;;;2.45;;
9783;SDS011;4931;44.874;-1.092;2023-12-22T01:11:03;21.23;;;2.10;;
9783;SDS011;4931;44.874;-1.092;2023-12-22T01:13:28;18.08;;;2.28;;
9783;SDS011;4931;44.874;-1.092;2023-12-22T01:15:54;21.25;;;3.05;;
9783;SDS011;4931;44.874;-1.092;2023-12-22T01:18:19;25.30;;;2.80;;
9783;SDS011;4931;44.874;-1.092;2023-12-22T01:20:45;25.90;;;3.33;;
9783;SDS011;4931;44.874;-1.092;2023-12-22T01:23:10;20.80;;;2.70;;
9783;SDS011;4931;44.874;-1.092;2023-12-22T01:25:35;26.08;;;2.85;;
9783;SDS011;4931;44.874;-1.092;2023-12-22T01:28:01;20.58;;;2.80;;
9783;SDS011;4931;44.874;-1.092;2023-12-22T01:30:26;22.58;;;2.95;;
9783;SDS011;4931;44.874;-1.092;2023-12-22T01:32:52;21.08;;;2.83;;
9783;SDS011;4931;44.874;-1.092;2023-12-22T01:35:18;25.58;;;2.97;;
9783;SDS011;4931;44.874;-1.092;2023-12-22T01:37:43;25.85;;;3.03;;
9783;SDS011;4931;44.874;-1.092;2023-12-22T01:40:09;21.05;;;2.85;;
9783;SDS011;4931;44.874;-1.092;2023-12-22T01:42:34;21.70;;;2.83;;
9783;SDS011;4931;44.874;-1.092;2023-12-22T01:45:00;17.42;;;2.25;;
9783;SDS011;4931;44.874;-1.092;2023-12-22T01:47:25;13.95;;;1.90;;
9783;SDS011;4931;44.874;-1.092;2023-12-22T01:49:51;17.15;;;1.70;;
9783;SDS011;4931;44.874;-1.092;2023-12-22T01:52:17;14.32;;;1.60;;
9783;SDS011;4931;44.874;-1.092;2023-12-22T01:54:43;12.00;;;2.10;;
9783;SDS011;4931;44.874;-1.092;2023-12-22T01:57:09;14.00;;;2.00;;
9783;SDS011;4931;44.874;-1.092;2023-12-22T01:59:38;19.70;;;2.30;;
9783;SDS011;4931;44.874;-1.092;2023-12-22T02:02:04;11.98;;;1.67;;
9783;SDS011;4931;44.874;-1.092;2023-12-22T02:04:30;9.43;;;2.03;;
9783;SDS011;4931;44.874;-1.092;2023-12-22T02:07:01;16.67;;;1.75;;
9783;SDS011;4931;44.874;-1.092;2023-12-22T02:09:28;17.52;;;3.55;;
9783;SDS011;4931;44.874;-1.092;2023-12-22T02:11:53;14.80;;;2.60;;
9783;SDS011;4931;44.874;-1.092;2023-12-22T02:14:19;14.25;;;2.08;;
9783;SDS011;4931;44.874;-1.092;2023-12-22T02:16:46;11.23;;;1.70;;
9783;SDS011;4931;44.874;-1.092;2023-12-22T02:19:54;9.60;;;1.50;;
9783;SDS011;4931;44.874;-1.092;2023-12-22T02:22:07;9.95;;;1.30;;
9783;SDS011;4931;44.874;-1.092;2023-12-22T02:24:33;12.35;;;1.23;;
9783;SDS011;4931;44.874;-1.092;2023-12-22T02:27:02;9.85;;;1.75;;
9783;SDS011;4931;44.874;-1.092;2023-12-22T02:29:35;9.88;;;1.33;;
9783;SDS011;4931;44.874;-1.092;2023-12-22T02:32:04;7.55;;;1.42;;
9783;SDS011;4931;44.874;-1.092;2023-12-22T02:37:00;14.48;;;1.70;;
9783;SDS011;4931;44.874;-1.092;2023-12-22T02:39:29;11.68;;;1.90;;
9783;SDS011;4931;44.874;-1.092;2023-12-22T02:41:54;12.18;;;1.73;;
9783;SDS011;4931;44.874;-1.092;2023-12-22T02:44:20;11.82;;;2.15;;
9783;SDS011;4931;44.874;-1.092;2023-12-22T02:46:46;18.40;;;2.10;;
9783;SDS011;4931;44.874;-1.092;2023-12-22T02:49:11;11.65;;;2.03;;
9783;SDS011;4931;44.874;-1.092;2023-12-22T02:51:38;14.63;;;2.35;;
9783;SDS011;4931;44.874;-1.092;2023-12-22T02:54:03;13.15;;;1.88;;
9783;SDS011;4931;44.874;-1.092;2023-12-22T02:56:29;16.70;;;2.53;;
9783;SDS011;4931;44.874;-1.092;2023-12-22T02:58:54;15.75;;;2.53;;
9783;SDS011;4931;44.874;-1.092;2023-12-22T03:01:20;22.80;;;2.42;;
9783;SDS011;4931;44.874;-1.092;2023-12-22T03:03:45;17.52;;;2.05;;
9783;SDS011;4931;44.874;-1.092;2023-12-22T03:06:11;19.48;;;2.55;;
9783;SDS011;4931;44.874;-1.092;2023-12-22T03:08:36;21.50;;;2.58;;
9783;SDS011;4931;44.874;-1.092;2023-12-22T03:11:02;19.98;;;2.60;;
9783;SDS011;4931;44.874;-1.092;2023-12-22T03:13:27;19.83;;;2.45;;
9783;SDS011;4931;44.874;-1.092;2023-12-22T03:15:53;26.05;;;3.03;;
9783;SDS011;4931;44.874;-1.092;2023-12-22T03:18:18;22.90;;;2.80;;
9783;SDS011;4931;44.874;-1.092;2023-12-22T03:20:44;18.10;;;2.53;;
9783;SDS011;4931;44.874;-1.092;2023-12-22T03:23:09;23.80;;;3.20;;
9783;SDS011;4931;44.874;-1.092;2023-12-22T03:25:34;24.25;;;2.67;;
9783;SDS011;4931;44.874;-1.092;2023-12-22T03:28:00;22.73;;;3.35;;
9783;SDS011;4931;44.874;-1.092;2023-12-22T03:30:25;23.02;;;3.65;;
9783;SDS011;4931;44.874;-1.092;2023-12-22T03:32:51;28.67;;;3.15;;
9783;SDS011;4931;44.874;-1.092;2023-12-22T03:35:16;26.10;;;3.20;;
9783;SDS011;4931;44.874;-1.092;2023-12-22T03:37:42;26.83;;;2.92;;
9783;SDS011;4931;44.874;-1.092;2023-12-22T03:40:08;22.75;;;3.17;;
9783;SDS011;4931;44.874;-1.092;2023-12-22T03:42:34;27.67;;;3.63;;
9783;SDS011;4931;44.874;-1.092;2023-12-22T03:45:00;20.95;;;2.67;;
9783;SDS011;4931;44.874;-1.092;2023-12-22T03:47:25;24.85;;;2.78;;
9783;SDS011;4931;44.874;-1.092;2023-12-22T03:49:51;16.02;;;2.55;;
9783;SDS011;4931;44.874;-1.092;2023-12-22T03:52:16;14.23;;;2.40;;
9783;SDS011;4931;44.874;-1.092;2023-12-22T03:54:42;17.88;;;2.30;;
9783;SDS011;4931;44.874;-1.092;2023-12-22T03:57:07;18.13;;;2.33;;
9783;SDS011;4931;44.874;-1.092;2023-12-22T03:59:32;11.65;;;1.92;;
9783;SDS011;4931;44.874;-1.092;2023-12-22T04:01:58;22.95;;;2.33;;
9783;SDS011;4931;44.874;-1.092;2023-12-22T04:04:26;14.35;;;2.35;;
9783;SDS011;4931;44.874;-1.092;2023-12-22T04:06:53;17.95;;;2.35;;
9783;SDS011;4931;44.874;-1.092;2023-12-22T04:09:18;17.58;;;1.95;;
9783;SDS011;4931;44.874;-1.092;2023-12-22T04:11:44;15.52;;;2.10;;
9783;SDS011;4931;44.874;-1.092;2023-12-22T04:14:09;20.83;;;2.35;;
9783;SDS011;4931;44.874;-1.092;2023-12-22T04:16:38;15.43;;;2.03;;
9783;SDS011;4931;44.874;-1.092;2023-12-22T04:19:04;16.92;;;2.38;;
9783;SDS011;4931;44.874;-1.092;2023-12-22T04:21:29;21.02;;;2.45;;
9783;SDS011;4931;44.874;-1.092;2023-12-22T04:23:55;10.95;;;2.10;;
9783;SDS011;4931;44.874;-1.092;2023-12-22T04:26:20;17.52;;;2.78;;
9783;SDS011;4931;44.874;-1.092;2023-12-22T04:28:46;17.20;;;3.03;;
9783;SDS011;4931;44.874;-1.092;2023-12-22T04:31:11;25.35;;;2.92;;
9783;SDS011;4931;44.874;-1.092;2023-12-22T04:33:37;22.23;;;3.13;;
9783;SDS011;4931;44.874;-1.092;2023-12-22T04:36:02;28.25;;;3.10;;
9783;SDS011;4931;44.874;-1.092;2023-12-22T04:38:28;26.77;;;3.78;;
9783;SDS011;4931;44.874;-1.092;2023-12-22T04:40:53;27.40;;;3.13;;
9783;SDS011;4931;44.874;-1.092;2023-12-22T04:43:19;34.30;;;3.53;;
9783;SDS011;4931;44.874;-1.092;2023-12-22T04:45:44;20.50;;;3.60;;
9783;SDS011;4931;44.874;-1.092;2023-12-22T04:48:10;22.08;;;2.95;;
9783;SDS011;4931;44.874;-1.092;2023-12-22T04:50:35;17.30;;;2.45;;
9783;SDS011;4931;44.874;-1.092;2023-12-22T04:53:01;13.50;;;1.58;;
9783;SDS011;4931;44.874;-1.092;2023-12-22T04:55:26;15.88;;;1.52;;
9783;SDS011;4931;44.874;-1.092;2023-12-22T04:57:51;11.52;;;1.60;;
9783;SDS011;4931;44.874;-1.092;2023-12-22T05:00:17;7.13;;;1.20;;
9783;SDS011;4931;44.874;-1.092;2023-12-22T05:02:43;7.22;;;1.38;;
9783;SDS011;4931;44.874;-1.092;2023-12-22T05:05:09;9.60;;;1.60;;
9783;SDS011;4931;44.874;-1.092;2023-12-22T05:07:40;10.65;;;1.75;;
9783;SDS011;4931;44.874;-1.092;2023-12-22T05:10:06;14.38;;;2.05;;
9783;SDS011;4931;44.874;-1.092;2023-12-22T05:12:32;15.07;;;2.15;;
9783;SDS011;4931;44.874;-1.092;2023-12-22T05:14:57;7.18;;;1.80;;
9783;SDS011;4931;44.874;-1.092;2023-12-22T05:17:23;10.25;;;1.88;;
9783;SDS011;4931;44.874;-1.092;2023-12-22T05:19:48;13.05;;;1.75;;
9783;SDS011;4931;44.874;-1.092;2023-12-22T05:22:13;13.13;;;1.80;;
9783;SDS011;4931;44.874;-1.092;2023-12-22T05:24:39;12.80;;;1.75;;
9783;SDS011;4931;44.874;-1.092;2023-12-22T05:27:04;14.25;;;1.67;;
9783;SDS011;4931;44.874;-1.092;2023-12-22T05:29:30;14.48;;;1.52;;
9783;SDS011;4931;44.874;-1.092;2023-12-22T05:31:55;11.35;;;1.67;;
9783;SDS011;4931;44.874;-1.092;2023-12-22T05:34:21;16.35;;;1.95;;
9783;SDS011;4931;44.874;-1.092;2023-12-22T05:36:46;14.63;;;2.08;;
9783;SDS011;4931;44.874;-1.092;2023-12-22T05:39:12;14.10;;;2.17;;
9783;SDS011;4931;44.874;-1.092;2023-12-22T05:41:37;15.05;;;2.20;;
9783;SDS011;4931;44.874;-1.092;2023-12-22T05:44:04;13.73;;;1.92;;
9783;SDS011;4931;44.874;-1.092;2023-12-22T05:46:31;11.10;;;1.50;;
9783;SDS011;4931;44.874;-1.092;2023-12-22T05:49:00;10.85;;;1.50;;
9783;SDS011;4931;44.874;-1.092;2023-12-22T05:51:25;9.75;;;1.40;;
9783;SDS011;4931;44.874;-1.092;2023-12-22T05:53:51;14.25;;;1.77;;
9783;SDS011;4931;44.874;-1.092;2023-12-22T05:56:19;19.55;;;2.05;;
9783;SDS011;4931;44.874;-1.092;2023-12-22T05:58:45;14.93;;;1.83;;
9783;SDS011;4931;44.874;-1.092;2023-12-22T06:01:14;15.35;;;1.85;;
9783;SDS011;4931;44.874;-1.092;2023-12-22T06:03:46;19.02;;;2.45;;
9783;SDS011;4931;44.874;-1.092;2023-12-22T06:06:12;18.45;;;2.10;;
9783;SDS011;4931;44.874;-1.092;2023-12-22T06:08:38;19.17;;;2.55;;
9783;SDS011;4931;44.874;-1.092;2023-12-22T06:11:04;18.50;;;2.28;;
9783;SDS011;4931;44.874;-1.092;2023-12-22T06:13:30;20.63;;;2.30;;
9783;SDS011;4931;44.874;-1.092;2023-12-22T06:15:56;22.17;;;2.80;;
9783;SDS011;4931;44.874;-1.092;2023-12-22T06:18:21;23.67;;;2.83;;
9783;SDS011;4931;44.874;-1.092;2023-12-22T06:20:47;19.48;;;2.58;;
9783;SDS011;4931;44.874;-1.092;2023-12-22T06:23:13;21.92;;;2.83;;
9783;SDS011;4931;44.874;-1.092;2023-12-22T06:25:38;21.60;;;2.63;;
9783;SDS011;4931;44.874;-1.092;2023-12-22T06:28:04;20.58;;;2.72;;
9783;SDS011;4931;44.874;-1.092;2023-12-22T06:30:29;19.23;;;2.45;;
9783;SDS011;4931;44.874;-1.092;2023-12-22T06:32:55;21.40;;;2.95;;
9783;SDS011;4931;44.874;-1.092;2023-12-22T06:35:21;18.67;;;2.42;;
9783;SDS011;4931;44.874;-1.092;2023-12-22T06:37:52;22.05;;;2.55;;
9783;SDS011;4931;44.874;-1.092;2023-12-22T06:40:19;21.50;;;2.75;;
9783;SDS011;4931;44.874;-1.092;2023-12-22T06:42:44;21.55;;;2.50;;
9783;SDS011;4931;44.874;-1.092;2023-12-22T06:45:10;20.63;;;2.40;;
9783;SDS011;4931;44.874;-1.092;2023-12-22T06:47:36;17.85;;;2.42;;
9783;SDS011;4931;44.874;-1.092;2023-12-22T06:50:02;21.02;;;2.53;;
9783;SDS011;4931;44.874;-1.092;2023-12-22T06:52:28;23.77;;;3.05;;
9783;SDS011;4931;44.874;-1.092;2023-12-22T06:54:53;15.57;;;2.70;;
9783;SDS011;4931;44.874;-1.092;2023-12-22T06:57:18;21.65;;;2.92;;
9783;SDS011;4931;44.874;-1.092;2023-12-22T06:59:45;20.15;;;2.80;;
9783;SDS011;4931;44.874;-1.092;2023-12-22T07:02:13;20.02;;;2.63;;
9783;SDS011;4931;44.874;-1.092;2023-12-22T07:07:39;17.30;;;2.58;;
9783;SDS011;4931;44.874;-1.092;2023-12-22T07:10:05;15.60;;;2.17;;
9783;SDS011;4931;44.874;-1.092;2023-12-22T07:12:31;19.05;;;2.70;;
9783;SDS011;4931;44.874;-1.092;2023-12-22T07:14:56;22.55;;;3.28;;
9783;SDS011;4931;44.874;-1.092;2023-12-22T07:17:22;17.45;;;2.28;;
9783;SDS011;4931;44.874;-1.092;2023-12-22T07:19:47;22.00;;;2.63;;
9783;SDS011;4931;44.874;-1.092;2023-12-22T07:22:13;21.83;;;2.75;;
9783;SDS011;4931;44.874;-1.092;2023-12-22T07:24:40;19.75;;;2.72;;
9783;SDS011;4931;44.874;-1.092;2023-12-22T07:27:05;21.55;;;2.78;;
9783;SDS011;4931;44.874;-1.092;2023-12-22T07:29:31;24.33;;;3.22;;
9783;SDS011;4931;44.874;-1.092;2023-12-22T07:31:56;28.77;;;3.45;;
9783;SDS011;4931;44.874;-1.092;2023-12-22T07:34:22;21.35;;;2.78;;
9783;SDS011;4931;44.874;-1.092;2023-12-22T07:36:47;20.55;;;3.30;;
9783;SDS011;4931;44.874;-1.092;2023-12-22T07:39:13;21.90;;;3.03;;
9783;SDS011;4931;44.874;-1.092;2023-12-22T07:41:39;26.30;;;3.50;;
9783;SDS011;4931;44.874;-1.092;2023-12-22T07:44:05;25.48;;;3.38;;
9783;SDS011;4931;44.874;-1.092;2023-12-22T07:46:30;18.95;;;2.78;;
9783;SDS011;4931;44.874;-1.092;2023-12-22T07:48:56;23.65;;;2.72;;
9783;SDS011;4931;44.874;-1.092;2023-12-22T07:51:21;19.00;;;2.65;;
9783;SDS011;4931;44.874;-1.092;2023-12-22T07:53:47;21.17;;;2.42;;
9783;SDS011;4931;44.874;-1.092;2023-12-22T07:56:12;18.10;;;2.50;;
9783;SDS011;4931;44.874;-1.092;2023-12-22T07:58:38;11.85;;;2.13;;
9783;SDS011;4931;44.874;-1.092;2023-12-22T08:01:04;12.98;;;2.22;;
9783;SDS011;4931;44.874;-1.092;2023-12-22T08:03:30;20.83;;;2.33;;
9783;SDS011;4931;44.874;-1.092;2023-12-22T08:05:56;25.48;;;3.00;;
9783;SDS011;4931;44.874;-1.092;2023-12-22T08:08:22;27.50;;;3.53;;
9783;SDS011;4931;44.874;-1.092;2023-12-22T08:10:47;20.75;;;3.25;;
9783;SDS011;4931;44.874;-1.092;2023-12-22T08:13:13;22.65;;;2.92;;
9783;SDS011;4931;44.874;-1.092;2023-12-22T08:15:38;15.90;;;2.13;;
9783;SDS011;4931;44.874;-1.092;2023-12-22T08:18:04;19.38;;;2.50;;
9783;SDS011;4931;44.874;-1.092;2023-12-22T08:20:30;19.15;;;2.38;;
9783;SDS011;4931;44.874;-1.092;2023-12-22T08:22:56;16.58;;;2.28;;
9783;SDS011;4931;44.874;-1.092;2023-12-22T08:25:21;18.23;;;2.60;;
9783;SDS011;4931;44.874;-1.092;2023-12-22T08:27:47;30.27;;;2.80;;
9783;SDS011;4931;44.874;-1.092;2023-12-22T08:30:12;18.58;;;2.20;;
9783;SDS011;4931;44.874;-1.092;2023-12-22T08:32:40;17.15;;;2.00;;
9783;SDS011;4931;44.874;-1.092;2023-12-22T08:35:05;16.73;;;2.10;;
9783;SDS011;4931;44.874;-1.092;2023-12-22T08:37:31;15.50;;;2.00;;
9783;SDS011;4931;44.874;-1.092;2023-12-22T08:39:57;14.00;;;1.92;;
9783;SDS011;4931;44.874;-1.092;2023-12-22T08:42:23;13.85;;;1.92;;
9783;SDS011;4931;44.874;-1.092;2023-12-22T08:44:49;21.23;;;2.42;;
9783;SDS011;4931;44.874;-1.092;2023-12-22T08:47:15;22.52;;;2.53;;
9783;SDS011;4931;44.874;-1.092;2023-12-22T08:49:40;22.90;;;3.03;;
9783;SDS011;4931;44.874;-1.092;2023-12-22T08:52:07;17.73;;;2.28;;
9783;SDS011;4931;44.874;-1.092;2023-12-22T08:54:32;16.42;;;2.53;;
9783;SDS011;4931;44.874;-1.092;2023-12-22T08:56:59;18.50;;;2.42;;
9783;SDS011;4931;44.874;-1.092;2023-12-22T08:59:24;20.83;;;2.80;;
9783;SDS011;4931;44.874;-1.092;2023-12-22T09:01:50;23.92;;;2.67;;
9783;SDS011;4931;44.874;-1.092;2023-12-22T09:04:15;24.55;;;2.83;;
9783;SDS011;4931;44.874;-1.092;2023-12-22T09:06:41;21.20;;;3.03;;
9783;SDS011;4931;44.874;-1.092;2023-12-22T09:09:07;23.45;;;2.38;;
9783;SDS011;4931;44.874;-1.092;2023-12-22T09:11:34;24.05;;;3.05;;
9783;SDS011;4931;44.874;-1.092;2023-12-22T09:14:00;24.58;;;3.10;;
9783;SDS011;4931;44.874;-1.092;2023-12-22T09:16:25;24.38;;;3.33;;
9783;SDS011;4931;44.874;-1.092;2023-12-22T09:18:51;27.95;;;3.63;;
9783;SDS011;4931;44.874;-1.092;2023-12-22T09:21:17;31.23;;;3.30;;
9783;SDS011;4931;44.874;-1.092;2023-12-22T09:23:46;31.08;;;3.13;;
9783;SDS011;4931;44.874;-1.092;2023-12-22T09:26:12;24.38;;;3.25;;
9783;SDS011;4931;44.874;-1.092;2023-12-22T09:28:39;26.63;;;3.25;;
9783;SDS011;4931;44.874;-1.092;2023-12-22T09:31:06;22.48;;;2.72;;
9783;SDS011;4931;44.874;-1.092;2023-12-22T09:33:32;25.30;;;3.38;;
9783;SDS011;4931;44.874;-1.092;2023-12-22T09:35:58;14.85;;;2.20;;
9783;SDS011;4931;44.874;-1.092;2023-12-22T09:38:23;13.82;;;2.10;;
9783;SDS011;4931;44.874;-1.092;2023-12-22T09:40:49;12.73;;;1.65;;
9783;SDS011;4931;44.874;-1.092;2023-12-22T09:43:15;11.98;;;1.50;;
9783;SDS011;4931;44.874;-1.092;2023-12-22T09:45:43;15.05;;;1.67;;
9783;SDS011;4931;44.874;-1.092;2023-12-22T09:48:10;9.38;;;1.65;;
9783;SDS011;4931;44.874;-1.092;2023-12-22T09:50:42;12.57;;;1.88;;
9783;SDS011;4931;44.874;-1.092;2023-12-22T09:53:14;13.15;;;1.63;;
9783;SDS011;4931;44.874;-1.092;2023-12-22T09:55:42;13.95;;;1.67;;
9783;SDS011;4931;44.874;-1.092;2023-12-22T09:58:09;21.30;;;2.40;;
9783;SDS011;4931;44.874;-1.092;2023-12-22T10:00:35;15.73;;;2.40;;
9783;SDS011;4931;44.874;-1.092;2023-12-22T10:03:02;17.80;;;2.00;;
9783;SDS011;4931;44.874;-1.092;2023-12-22T10:05:31;16.15;;;1.92;;
9783;SDS011;4931;44.874;-1.092;2023-12-22T10:07:56;11.13;;;1.85;;
9783;SDS011;4931;44.874;-1.092;2023-12-22T10:10:23;15.25;;;1.95;;
9783;SDS011;4931;44.874;-1.092;2023-12-22T10:12:50;16.42;;;1.65;;
9783;SDS011;4931;44.874;-1.092;2023-12-22T10:15:17;15.85;;;2.00;;
9783;SDS011;4931;44.874;-1.092;2023-12-22T10:17:48;13.15;;;1.70;;
9783;SDS011;4931;44.874;-1.092;2023-12-22T10:20:14;8.05;;;1.45;;
9783;SDS011;4931;44.874;-1.092;2023-12-22T10:22:40;8.88;;;1.35;;
9783;SDS011;4931;44.874;-1.092;2023-12-22T10:25:05;11.93;;;1.45;;
9783;SDS011;4931;44.874;-1.092;2023-12-22T10:27:33;7.28;;;0.93;;
9783;SDS011;4931;44.874;-1.092;2023-12-22T10:30:02;17.02;;;1.70;;
9783;SDS011;4931;44.874;-1.092;2023-12-22T10:32:28;11.25;;;1.55;;
9783;SDS011;4931;44.874;-1.092;2023-12-22T10:34:55;20.27;;;2.13;;
9783;SDS011;4931;44.874;-1.092;2023-12-22T10:37:22;19.40;;;2.03;;
9783;SDS011;4931;44.874;-1.092;2023-12-22T10:39:51;19.20;;;2.10;;
9783;SDS011;4931;44.874;-1.092;2023-12-22T10:42:18;13.02;;;1.95;;
9783;SDS011;4931;44.874;-1.092;2023-12-22T10:44:43;13.52;;;1.60;;
9783;SDS011;4931;44.874;-1.092;2023-12-22T10:47:10;11.25;;;2.28;;
9783;SDS011;4931;44.874;-1.092;2023-12-22T10:49:35;16.73;;;2.20;;
9783;SDS011;4931;44.874;-1.092;2023-12-22T10:52:01;12.70;;;2.03;;
9783;SDS011;4931;44.874;-1.092;2023-12-22T10:54:27;12.65;;;2.05;;
9783;SDS011;4931;44.874;-1.092;2023-12-22T10:56:54;17.70;;;2.28;;
9783;SDS011;4931;44.874;-1.092;2023-12-22T10:59:24;18.83;;;2.30;;
9783;SDS011;4931;44.874;-1.092;2023-12-22T11:01:53;15.90;;;2.13;;
9783;SDS011;4931;44.874;-1.092;2023-12-22T11:04:22;18.08;;;2.67;;
9783;SDS011;4931;44.874;-1.092;2023-12-22T11:06:54;12.50;;;1.50;;
9783;SDS011;4931;44.874;-1.092;2023-12-22T11:09:23;13.18;;;1.90;;
9783;SDS011;4931;44.874;-1.092;2023-12-22T11:11:50;18.52;;;2.80;;
9783;SDS011;4931;44.874;-1.092;2023-12-22T11:14:16;15.43;;;2.25;;
9783;SDS011;4931;44.874;-1.092;2023-12-22T11:16:42;11.45;;;1.42;;
9783;SDS011;4931;44.874;-1.092;2023-12-22T11:19:13;11.10;;;1.45;;
9783;SDS011;4931;44.874;-1.092;2023-12-22T11:21:40;14.05;;;1.42;;
9783;SDS011;4931;44.874;-1.092;2023-12-22T11:24:06;9.18;;;1.30;;
9783;SDS011;4931;44.874;-1.092;2023-12-22T11:26:32;13.05;;;1.92;;
9783;SDS011;4931;44.874;-1.092;2023-12-22T11:28:58;11.30;;;1.40;;
9783;SDS011;4931;44.874;-1.092;2023-12-22T11:31:25;11.40;;;1.58;;
9783;SDS011;4931;44.874;-1.092;2023-12-22T11:33:52;11.45;;;1.38;;
9783;SDS011;4931;44.874;-1.092;2023-12-22T11:36:21;11.23;;;1.55;;
9783;SDS011;4931;44.874;-1.092;2023-12-22T11:38:48;10.25;;;1.55;;
9783;SDS011;4931;44.874;-1.092;2023-12-22T11:41:15;15.07;;;1.73;;
9783;SDS011;4931;44.874;-1.092;2023-12-22T11:43:44;14.57;;;1.80;;
9783;SDS011;4931;44.874;-1.092;2023-12-22T11:46:12;16.05;;;2.40;;
9783;SDS011;4931;44.874;-1.092;2023-12-22T11:48:38;20.50;;;2.45;;
9783;SDS011;4931;44.874;-1.092;2023-12-22T11:51:14;16.17;;;2.28;;
9783;SDS011;4931;44.874;-1.092;2023-12-22T11:53:40;21.70;;;2.72;;
9783;SDS011;4931;44.874;-1.092;2023-12-22T11:56:06;16.70;;;2.45;;
9783;SDS011;4931;44.874;-1.092;2023-12-22T12:01:02;21.73;;;3.17;;
9783;SDS011;4931;44.874;-1.092;2023-12-22T12:03:30;16.33;;;2.35;;
9783;SDS011;4931;44.874;-1.092;2023-12-22T12:06:09;21.38;;;2.10;;
9783;SDS011;4931;44.874;-1.092;2023-12-22T12:08:38;8.32;;;1.55;;
9783;SDS011;4931;44.874;-1.092;2023-12-22T12:11:03;9.93;;;1.63;;
9783;SDS011;4931;44.874;-1.092;2023-12-22T12:13:30;5.18;;;1.08;;
9783;SDS011;4931;44.874;-1.092;2023-12-22T12:15:58;7.43;;;1.08;;
9783;SDS011;4931;44.874;-1.092;2023-12-22T12:18:27;9.45;;;1.17;;
9783;SDS011;4931;44.874;-1.092;2023-12-22T12:20:53;11.43;;;1.40;;
9783;SDS011;4931;44.874;-1.092;2023-12-22T12:23:19;7.80;;;1.15;;
9783;SDS011;4931;44.874;-1.092;2023-12-22T12:25:45;10.68;;;1.58;;
9783;SDS011;4931;44.874;-1.092;2023-12-22T12:28:12;8.52;;;1.52;;
9783;SDS011;4931;44.874;-1.092;2023-12-22T12:30:39;5.93;;;1.50;;
9783;SDS011;4931;44.874;-1.092;2023-12-22T12:33:09;12.63;;;1.58;;
9783;SDS011;4931;44.874;-1.092;2023-12-22T12:35:40;8.77;;;1.30;;
9783;SDS011;4931;44.874;-1.092;2023-12-22T12:38:08;8.65;;;1.58;;
9783;SDS011;4931;44.874;-1.092;2023-12-22T12:40:34;13.45;;;1.85;;
9783;SDS011;4931;44.874;-1.092;2023-12-22T12:43:04;12.13;;;1.30;;
9783;SDS011;4931;44.874;-1.092;2023-12-22T12:45:30;11.65;;;1.55;;
9783;SDS011;4931;44.874;-1.092;2023-12-22T12:47:59;11.75;;;1.48;;
9783;SDS011;4931;44.874;-1.092;2023-12-22T12:50:28;10.95;;;1.52;;
9783;SDS011;4931;44.874;-1.092;2023-12-22T12:52:54;13.75;;;1.48;;
9783;SDS011;4931;44.874;-1.092;2023-12-22T12:55:24;18.40;;;1.60;;
9783;SDS011;4931;44.874;-1.092;2023-12-22T12:57:51;10.52;;;1.75;;
9783;SDS011;4931;44.874;-1.092;2023-12-22T13:00:26;9.80;;;1.63;;
9783;SDS011;4931;44.874;-1.092;2023-12-22T13:02:53;8.20;;;1.30;;
9783;SDS011;4931;44.874;-1.092;2023-12-22T13:05:23;11.63;;;1.35;;
9783;SDS011;4931;44.874;-1.092;2023-12-22T13:07:49;17.55;;;1.55;;
9783;SDS011;4931;44.874;-1.092;2023-12-22T13:10:24;12.65;;;1.63;;
9783;SDS011;4931;44.874;-1.092;2023-12-22T13:12:51;11.88;;;1.20;;
9783;SDS011;4931;44.874;-1.092;2023-12-22T13:15:19;13.68;;;1.80;;
9783;SDS011;4931;44.874;-1.092;2023-12-22T13:17:46;11.68;;;1.35;;
9783;SDS011;4931;44.874;-1.092;2023-12-22T13:20:12;12.60;;;1.85;;
9783;SDS011;4931;44.874;-1.092;2023-12-22T13:22:38;13.18;;;2.00;;
9783;SDS011;4931;44.874;-1.092;2023-12-22T13:25:04;12.85;;;1.83;;
9783;SDS011;4931;44.874;-1.092;2023-12-22T13:27:30;25.85;;;12.60;;
9783;SDS011;4931;44.874;-1.092;2023-12-22T13:29:55;13.02;;;2.83;;
9783;SDS011;4931;44.874;-1.092;2023-12-22T13:32:21;28.27;;;10.68;;
9783;SDS011;4931;44.874;-1.092;2023-12-22T13:34:52;11.43;;;1.70;;
9783;SDS011;4931;44.874;-1.092;2023-12-22T13:37:19;20.30;;;7.18;;
9783;SDS011;4931;44.874;-1.092;2023-12-22T13:39:45;32.45;;;12.95;;
9783;SDS011;4931;44.874;-1.092;2023-12-22T13:42:15;15.80;;;4.57;;
9783;SDS011;4931;44.874;-1.092;2023-12-22T13:44:45;3.70;;;0.95;;
9783;SDS011;4931;44.874;-1.092;2023-12-22T13:47:15;5.80;;;2.15;;
9783;SDS011;4931;44.874;-1.092;2023-12-22T13:49:41;10.63;;;2.70;;
9783;SDS011;4931;44.874;-1.092;2023-12-22T13:52:08;6.47;;;1.20;;
9783;SDS011;4931;44.874;-1.092;2023-12-22T13:54:50;10.30;;;1.60;;
9783;SDS011;4931;44.874;-1.092;2023-12-22T13:57:19;8.63;;;1.23;;
9783;SDS011;4931;44.874;-1.092;2023-12-22T14:02:12;16.90;;;3.30;;
9783;SDS011;4931;44.874;-1.092;2023-12-22T14:04:37;16.25;;;2.40;;
9783;SDS011;4931;44.874;-1.092;2023-12-22T14:07:03;17.90;;;3.65;;
9783;SDS011;4931;44.874;-1.092;2023-12-22T14:09:28;21.83;;;3.22;;
9783;SDS011;4931;44.874;-1.092;2023-12-22T14:11:58;19.77;;;3.20;;
9783;SDS011;4931;44.874;-1.092;2023-12-22T14:14:23;23.73;;;3.47;;
9783;SDS011;4931;44.874;-1.092;2023-12-22T14:16:48;16.42;;;3.08;;
9783;SDS011;4931;44.874;-1.092;2023-12-22T14:19:14;20.52;;;3.10;;
9783;SDS011;4931;44.874;-1.092;2023-12-22T14:21:39;20.10;;;2.95;;
9783;SDS011;4931;44.874;-1.092;2023-12-22T14:24:05;22.15;;;3.70;;
9783;SDS011;4931;44.874;-1.092;2023-12-22T14:26:30;24.48;;;3.72;;
9783;SDS011;4931;44.874;-1.092;2023-12-22T14:28:56;26.73;;;5.75;;
9783;SDS011;4931;44.874;-1.092;2023-12-22T14:31:22;26.50;;;5.88;;
9783;SDS011;4931;44.874;-1.092;2023-12-22T14:33:47;29.42;;;5.90;;
9783;SDS011;4931;44.874;-1.092;2023-12-22T14:36:13;28.15;;;4.45;;
9783;SDS011;4931;44.874;-1.092;2023-12-22T14:38:38;19.98;;;3.33;;
9783;SDS011;4931;44.874;-1.092;2023-12-22T14:41:04;18.35;;;3.35;;
9783;SDS011;4931;44.874;-1.092;2023-12-22T14:43:29;30.08;;;3.67;;
9783;SDS011;4931;44.874;-1.092;2023-12-22T14:45:54;22.02;;;3.03;;
9783;SDS011;4931;44.874;-1.092;2023-12-22T14:48:20;17.13;;;2.80;;
9783;SDS011;4931;44.874;-1.092;2023-12-22T14:50:45;23.42;;;2.90;;
9783;SDS011;4931;44.874;-1.092;2023-12-22T14:53:11;20.73;;;3.10;;